Time;durP1;ratioP1;P1;durP2;ratioP2;P2;SDS_P1;SDS_P2;PMS_P1;PMS_P2;Temp;Humidity;BMP_temperature;BMP_pressure;BME280_temperature;BME280_humidity;BME280_pressure;Samples;Min_cycle;Max_cycle;Signal;HPM_P1;HPM_P2
2022/09/15 00:00:41;;;;;;;3.15;1.50;;;;;15.10;93235.00;;;;7395396;19;20531;-81
2022/09/15 00:03:18;;;;;;;3.88;1.48;;;;;15.10;93232.00;;;;7396560;19;20137;-80
2022/09/15 00:05:53;;;;;;;1.27;1.17;;;;;15.00;93238.00;;;;7394038;19;20155;-81
2022/09/15 00:08:21;;;;;;;1.98;1.30;;;;;14.90;93235.00;;;;7398569;19;20183;-80
2022/09/15 00:11:05;;;;;;;1.50;1.35;;;;;14.90;93234.00;;;;7395139;19;20121;-80
2022/09/15 00:13:39;;;;;;;1.35;1.20;;;;;14.90;93228.00;;;;7398779;19;20152;-80
2022/09/15 00:16:08;;;;;;;4.30;1.30;;;;;14.90;93219.00;;;;7397074;19;20622;-80
2022/09/15 00:18:41;;;;;;;2.65;1.90;;;;;15.00;93232.00;;;;7397123;19;20156;-80
2022/09/15 00:21:24;;;;;;;2.30;1.63;;;;;15.00;93230.00;;;;7394948;19;20548;-79
2022/09/15 00:23:52;;;;;;;2.65;1.55;;;;;15.00;93234.00;;;;7397853;19;20607;-80
2022/09/15 00:26:27;;;;;;;2.13;1.50;;;;;15.10;93229.00;;;;7399668;19;20127;-80
2022/09/15 00:28:56;;;;;;;4.47;1.65;;;;;15.20;93217.00;;;;7399513;19;20125;-79
2022/09/15 00:31:25;;;;;;;6.07;1.80;;;;;15.20;93210.00;;;;7402653;19;20139;-80
2022/09/15 00:34:05;;;;;;;1.90;1.60;;;;;15.20;93214.00;;;;7393284;19;20584;-80
2022/09/15 00:36:39;;;;;;;2.30;1.90;;;;;15.30;93219.00;;;;7390684;19;20172;-80
2022/09/15 00:39:20;;;;;;;5.28;1.45;;;;;15.20;93229.00;;;;7394075;19;20152;-79
2022/09/15 00:41:47;;;;;;;2.08;1.67;;;;;15.30;93228.00;;;;7397733;19;20576;-79
2022/09/15 00:44:21;;;;;;;7.22;1.65;;;;;15.30;93225.00;;;;7394603;19;20152;-79
2022/09/15 00:46:56;;;;;;;3.10;1.80;;;;;15.40;93223.00;;;;7391865;19;20139;-79
2022/09/15 00:49:49;;;;;;;3.40;1.70;;;;;15.40;93230.00;;;;7393763;19;20152;-79
2022/09/15 00:52:46;;;;;;;2.30;2.08;;;;;15.40;93217.00;;;;7391658;19;20145;-78
2022/09/15 00:55:28;;;;;;;2.58;2.10;;;;;15.40;93218.00;;;;7397171;19;20156;-80
2022/09/15 00:58:06;;;;;;;4.45;2.17;;;;;15.40;93218.00;;;;7392940;19;20128;-79
2022/09/15 01:00:49;;;;;;;2.78;2.20;;;;;15.50;93221.00;;;;7390858;19;20137;-79
2022/09/15 01:03:17;;;;;;;4.50;2.15;;;;;15.50;93213.00;;;;7392776;19;20116;-80
2022/09/15 01:05:57;;;;;;;4.95;2.63;;;;;15.60;93213.00;;;;7393721;19;20131;-80
2022/09/15 01:08:48;;;;;;;4.00;2.75;;;;;15.70;93209.00;;;;7393697;19;20131;-80
2022/09/15 01:11:22;;;;;;;4.22;2.17;;;;;15.70;93210.00;;;;7393471;19;20128;-81
2022/09/15 01:13:50;;;;;;;6.07;2.78;;;;;15.70;93209.00;;;;7392717;19;20125;-80
2022/09/15 01:16:35;;;;;;;5.50;2.35;;;;;15.70;93190.00;;;;7392088;19;20619;-80
2022/09/15 01:19:42;;;;;;;7.25;2.53;;;;;15.70;93191.00;;;;7391971;19;20117;-80
2022/09/15 01:22:35;;;;;;;6.78;2.42;;;;;15.70;93195.00;;;;7388588;19;20148;-78
2022/09/15 01:25:26;;;;;;;5.53;2.08;;;;;15.70;93200.00;;;;7395443;19;20463;-80
2022/09/15 01:28:02;;;;;;;5.00;2.65;;;;;15.70;93189.00;;;;7391343;19;20132;-80
2022/09/15 01:30:53;;;;;;;3.35;2.28;;;;;15.70;93198.00;;;;7393907;19;20149;-80
2022/09/15 01:33:34;;;;;;;3.38;2.40;;;;;15.60;93201.00;;;;7391856;19;20486;-81
2022/09/15 01:36:19;;;;;;;9.23;2.47;;;;;15.60;93192.00;;;;7388718;19;20595;-80
2022/09/15 01:39:15;;;;;;;3.05;2.03;;;;;15.70;93178.00;;;;7391079;19;20143;-79
2022/09/15 01:41:57;;;;;;;3.00;2.10;;;;;15.60;93179.00;;;;7390413;19;20161;-79
2022/09/15 01:44:37;;;;;;;3.67;2.30;;;;;15.60;93176.00;;;;7396416;19;20117;-78
2022/09/15 01:47:14;;;;;;;2.63;1.90;;;;;15.60;93180.00;;;;7393571;19;20137;-80
2022/09/15 01:49:54;;;;;;;4.88;2.00;;;;;15.50;93169.00;;;;7395311;19;20129;-80
2022/09/15 01:52:33;;;;;;;2.63;2.10;;;;;15.50;93173.00;;;;7392500;19;20155;-81
2022/09/15 01:55:06;;;;;;;2.13;1.92;;;;;15.50;93173.00;;;;7395944;19;20211;-81
2022/09/15 01:57:40;;;;;;;2.53;2.00;;;;;15.40;93181.00;;;;7394603;19;20146;-79
2022/09/15 02:00:11;;;;;;;3.17;2.42;;;;;15.50;93172.00;;;;7395297;19;20124;-80
2022/09/15 02:02:49;;;;;;;3.78;1.92;;;;;15.50;93188.00;;;;7390061;19;20140;-80
2022/09/15 02:05:40;;;;;;;7.10;2.10;;;;;15.60;93185.00;;;;7389865;19;20145;-79
2022/09/15 02:08:27;;;;;;;2.70;1.98;;;;;15.60;93185.00;;;;7390884;19;20144;-79
2022/09/15 02:11:21;;;;;;;4.13;2.10;;;;;15.60;93177.00;;;;7391635;19;20136;-80
2022/09/15 02:13:59;;;;;;;2.58;2.00;;;;;15.50;93178.00;;;;7393422;19;20128;-80
2022/09/15 02:16:35;;;;;;;4.32;1.88;;;;;15.50;93172.00;;;;7389984;19;20444;-79
2022/09/15 02:19:29;;;;;;;4.03;1.77;;;;;15.60;93176.00;;;;7392352;19;20153;-79
2022/09/15 02:22:16;;;;;;;1.98;1.80;;;;;15.60;93171.00;;;;7388925;19;20138;-79
2022/09/15 02:24:58;;;;;;;2.10;1.90;;;;;15.60;93175.00;;;;7389199;19;20591;-78
2022/09/15 02:27:40;;;;;;;2.75;1.83;;;;;15.60;93175.00;;;;7389244;19;20161;-79
2022/09/15 02:30:11;;;;;;;4.63;2.33;;;;;15.60;93175.00;;;;7393436;19;20599;-78
2022/09/15 02:32:58;;;;;;;4.35;1.80;;;;;15.60;93175.00;;;;7390533;19;20132;-78
2022/09/15 02:35:27;;;;;;;3.40;2.00;;;;;15.60;93182.00;;;;7392618;19;20185;-79
2022/09/15 02:38:09;;;;;;;2.20;1.67;;;;;15.60;93163.00;;;;7394749;19;20518;-80
2022/09/15 02:40:41;;;;;;;3.88;1.75;;;;;15.60;93176.00;;;;7400792;19;20144;-80
2022/09/15 02:43:17;;;;;;;2.33;1.63;;;;;15.60;93169.00;;;;7397087;19;20192;-80
2022/09/15 02:45:45;;;;;;;3.00;1.50;;;;;15.50;93164.00;;;;7395630;19;20611;-80
2022/09/15 02:48:15;;;;;;;1.88;1.58;;;;;15.50;93167.00;;;;7397869;19;20132;-80
2022/09/15 02:50:49;;;;;;;3.85;1.70;;;;;15.60;93166.00;;;;7398664;19;20120;-79
2022/09/15 02:53:17;;;;;;;1.92;1.60;;;;;15.40;93163.00;;;;7398188;19;20129;-80
2022/09/15 02:55:51;;;;;;;2.08;1.55;;;;;15.40;93154.00;;;;7394745;19;20148;-80
2022/09/15 02:58:26;;;;;;;2.53;1.50;;;;;15.40;93164.00;;;;7397746;19;20160;-80
2022/09/15 03:00:55;;;;;;;2.03;1.52;;;;;15.40;93163.00;;;;7395388;19;20129;-80
2022/09/15 03:03:22;;;;;;;2.00;1.73;;;;;15.30;93171.00;;;;7397187;19;20615;-81
2022/09/15 03:06:15;;;;;;;2.47;1.40;;;;;15.40;93171.00;;;;7400541;19;20151;-80
2022/09/15 03:09:00;;;;;;;2.08;1.70;;;;;15.50;93170.00;;;;7399323;19;20180;-79
2022/09/15 03:11:37;;;;;;;3.75;1.75;;;;;15.50;93168.00;;;;7398565;19;20143;-80
2022/09/15 03:14:07;;;;;;;3.20;1.52;;;;;15.50;93175.00;;;;7399987;19;20185;-80
2022/09/15 03:16:35;;;;;;;2.85;1.80;;;;;15.50;93170.00;;;;7394377;19;20137;-80
2022/09/15 03:19:09;;;;;;;3.92;1.65;;;;;15.50;93170.00;;;;7398371;19;20149;-79
2022/09/15 03:21:37;;;;;;;2.95;1.52;;;;;15.60;93167.00;;;;7392868;19;20144;-81
2022/09/15 03:24:04;;;;;;;3.75;1.60;;;;;15.70;93176.00;;;;7402388;19;20152;-80
2022/09/15 03:26:38;;;;;;;2.30;1.85;;;;;15.60;93178.00;;;;7394248;19;20144;-79
2022/09/15 03:29:09;;;;;;;3.15;1.70;;;;;15.60;93175.00;;;;7400102;19;20508;-80
2022/09/15 03:31:37;;;;;;;2.85;1.38;;;;;15.60;93165.00;;;;7394601;19;20133;-81
2022/09/15 03:34:11;;;;;;;2.97;1.50;;;;;15.60;93170.00;;;;7396738;19;20242;-79
2022/09/15 03:36:52;;;;;;;1.73;1.63;;;;;15.60;93169.00;;;;7396576;19;20149;-80
2022/09/15 03:39:26;;;;;;;1.77;1.60;;;;;15.60;93170.00;;;;7400276;19;20144;-80
2022/09/15 03:41:54;;;;;;;2.53;1.75;;;;;15.70;93172.00;;;;7396628;19;20205;-81
2022/09/15 03:44:24;;;;;;;2.80;1.70;;;;;15.60;93172.00;;;;7396134;19;20165;-78
2022/09/15 03:46:58;;;;;;;2.35;1.80;;;;;15.60;93167.00;;;;7396899;19;20125;-80
2022/09/15 03:49:32;;;;;;;2.28;1.75;;;;;15.60;93166.00;;;;7397132;19;20150;-80
2022/09/15 03:52:00;;;;;;;3.25;1.85;;;;;15.60;93171.00;;;;7393806;19;20132;-79
2022/09/15 03:54:34;;;;;;;2.35;1.70;;;;;15.60;93172.00;;;;7399800;19;20124;-79
2022/09/15 03:57:02;;;;;;;2.55;1.70;;;;;15.60;93178.00;;;;7392835;19;20125;-80
2022/09/15 03:59:29;;;;;;;3.63;1.90;;;;;15.60;93172.00;;;;7397092;19;20149;-80
2022/09/15 04:02:03;;;;;;;4.57;2.30;;;;;15.70;93172.00;;;;7394748;19;20133;-78
2022/09/15 04:04:30;;;;;;;2.33;1.83;;;;;15.70;93173.00;;;;7397048;19;20643;-81
2022/09/15 04:06:57;;;;;;;4.55;2.10;;;;;15.50;93182.00;;;;7396469;19;20475;-80
2022/09/15 04:09:32;;;;;;;6.18;2.22;;;;;15.60;93179.00;;;;7396411;19;20479;-80
2022/09/15 04:11:59;;;;;;;2.72;2.03;;;;;15.60;93176.00;;;;7397900;19;20542;-80
2022/09/15 04:14:27;;;;;;;3.97;1.83;;;;;15.60;93170.00;;;;7398781;19;20140;-80
2022/09/15 04:17:03;;;;;;;3.42;1.90;;;;;15.60;93168.00;;;;7396376;19;20148;-81
2022/09/15 04:19:33;;;;;;;7.50;1.95;;;;;15.60;93168.00;;;;7393655;19;20137;-80
2022/09/15 04:22:03;;;;;;;2.17;1.90;;;;;15.70;93165.00;;;;7393266;19;20149;-80
2022/09/15 04:24:50;;;;;;;3.72;2.47;;;;;15.70;93173.00;;;;7395721;19;20459;-79
2022/09/15 04:27:20;;;;;;;3.80;2.00;;;;;15.60;93175.00;;;;7395913;19;20124;-79
2022/09/15 04:29:53;;;;;;;2.90;1.98;;;;;15.70;93173.00;;;;7398823;19;20148;-81
2022/09/15 04:32:27;;;;;;;4.82;2.30;;;;;15.80;93159.00;;;;7394440;19;20133;-80
2022/09/15 04:34:54;;;;;;;3.75;2.28;;;;;15.80;93160.00;;;;7396343;19;20753;-80
2022/09/15 04:37:42;;;;;;;5.47;2.53;;;;;15.70;93167.00;;;;7394959;19;20164;-79
2022/09/15 04:40:20;;;;;;;3.67;2.40;;;;;15.70;93170.00;;;;7392749;19;20208;-79
2022/09/15 04:42:56;;;;;;;3.35;2.50;;;;;15.60;93169.00;;;;7403525;19;20148;-80
2022/09/15 04:45:24;;;;;;;3.28;2.15;;;;;15.50;93168.00;;;;7394766;19;20482;-80
2022/09/15 04:47:52;;;;;;;4.85;2.60;;;;;15.60;93172.00;;;;7425186;19;20145;-81
2022/09/15 04:50:26;;;;;;;3.53;2.53;;;;;15.50;93163.00;;;;7421714;19;20140;-79
2022/09/15 04:52:53;;;;;;;3.30;2.03;;;;;15.40;93172.00;;;;7428127;19;20140;-81
2022/09/15 04:55:26;;;;;;;4.93;2.40;;;;;15.40;93182.00;;;;7412412;19;20196;-78
2022/09/15 04:58:04;;;;;;;4.25;2.40;;;;;15.40;93175.00;;;;7418953;19;20171;-80
2022/09/15 05:00:38;;;;;;;3.83;2.50;;;;;15.40;93179.00;;;;7415085;19;20149;-81
2022/09/15 05:03:13;;;;;;;4.95;2.58;;;;;15.40;93180.00;;;;7423918;19;20120;-81
2022/09/15 05:05:46;;;;;;;4.35;2.70;;;;;15.40;93182.00;;;;7400810;19;20135;-81
2022/09/15 05:08:16;;;;;;;5.10;2.58;;;;;15.50;93184.00;;;;7422624;19;20148;-80
2022/09/15 05:10:52;;;;;;;4.72;2.83;;;;;15.40;93183.00;;;;7423288;19;20147;-81
2022/09/15 05:13:22;;;;;;;4.45;2.47;;;;;15.40;93184.00;;;;7425479;19;20132;-79
2022/09/15 05:18:40;;;;;;;6.20;3.65;;;;;15.40;93188.00;;;;7411391;19;20177;-78
2022/09/15 05:21:26;;;;;;;6.70;2.90;;;;;15.40;93186.00;;;;7406895;19;20195;-84
2022/09/15 05:24:13;;;;;;;6.03;3.00;;;;;15.50;93180.00;;;;7420162;19;20196;-80
2022/09/15 05:26:47;;;;;;;5.47;2.70;;;;;15.40;93189.00;;;;7425410;19;20161;-80
2022/09/15 05:29:21;;;;;;;7.18;3.08;;;;;15.50;93184.00;;;;7421497;19;20129;-79
2022/09/15 05:31:48;;;;;;;3.90;2.90;;;;;15.50;93183.00;;;;7420008;19;20136;-81
2022/09/15 05:34:16;;;;;;;3.60;3.30;;;;;15.40;93180.00;;;;7421074;19;20203;-79
2022/09/15 05:36:53;;;;;;;4.40;2.90;;;;;15.40;93189.00;;;;7415709;19;20152;-80
2022/09/15 05:39:21;;;;;;;4.32;2.60;;;;;15.50;93186.00;;;;7420215;19;20137;-78
2022/09/15 05:41:51;;;;;;;4.57;2.70;;;;;15.40;93183.00;;;;7427159;19;20133;-81
2022/09/15 05:44:30;;;;;;;4.57;2.78;;;;;15.50;93176.00;;;;7425600;19;20121;-82
2022/09/15 05:46:59;;;;;;;4.10;3.00;;;;;15.40;93172.00;;;;7422095;19;20131;-81
2022/09/15 05:49:28;;;;;;;5.20;2.60;;;;;15.40;93181.00;;;;7427554;19;20148;-79
2022/09/15 05:52:02;;;;;;;5.65;2.85;;;;;15.40;93175.00;;;;7425138;19;20128;-78
2022/09/15 05:54:34;;;;;;;5.75;2.50;;;;;15.50;93180.00;;;;7428201;19;20156;-80
2022/09/15 05:57:04;;;;;;;3.47;2.10;;;;;15.50;93183.00;;;;7424672;19;20133;-79
2022/09/15 05:59:40;;;;;;;6.85;2.95;;;;;15.70;93175.00;;;;7425567;19;20148;-81
2022/09/15 06:02:19;;;;;;;4.03;2.30;;;;;15.60;93185.00;;;;7427223;19;20185;-77
2022/09/15 06:04:52;;;;;;;3.40;2.17;;;;;15.70;93188.00;;;;7411153;19;20140;-79
2022/09/15 06:07:20;;;;;;;3.55;2.20;;;;;15.60;93187.00;;;;7394875;19;20572;-77
2022/09/15 06:09:47;;;;;;;4.88;2.40;;;;;15.50;93192.00;;;;7401702;19;20159;-79
2022/09/15 06:12:21;;;;;;;4.60;2.17;;;;;15.30;93196.00;;;;7401818;19;20196;-78
2022/09/15 06:14:49;;;;;;;4.97;2.10;;;;;15.20;93201.00;;;;7398349;19;20120;-78
2022/09/15 06:17:17;;;;;;;7.75;2.05;;;;;15.30;93191.00;;;;7397200;19;20148;-76
2022/09/15 06:19:51;;;;;;;4.25;2.20;;;;;15.30;93190.00;;;;7399633;19;20475;-77
2022/09/15 06:22:19;;;;;;;4.72;1.83;;;;;15.40;93188.00;;;;7395191;19;20148;-78
2022/09/15 06:24:46;;;;;;;2.78;1.95;;;;;15.40;93196.00;;;;7396799;19;20136;-76
2022/09/15 06:27:21;;;;;;;2.75;1.63;;;;;15.40;93198.00;;;;7398020;19;20136;-76
2022/09/15 06:29:48;;;;;;;1.42;1.20;;;;;15.30;93201.00;;;;7395384;19;20154;-77
2022/09/15 06:32:16;;;;;;;1.70;1.60;;;;;15.40;93195.00;;;;7394886;19;20151;-76
2022/09/15 06:34:57;;;;;;;1.83;1.65;;;;;15.30;93206.00;;;;7394279;19;20670;-78
2022/09/15 06:37:34;;;;;;;2.20;1.27;;;;;15.30;93211.00;;;;7399819;19;20145;-79
2022/09/15 06:40:09;;;;;;;2.25;1.30;;;;;15.30;93208.00;;;;7396836;19;20591;-78
2022/09/15 06:42:37;;;;;;;5.03;1.15;;;;;15.30;93209.00;;;;7397444;19;20178;-77
2022/09/15 06:45:05;;;;;;;1.77;1.10;;;;;15.20;93208.00;;;;7399371;19;20148;-77
2022/09/15 06:47:47;;;;;;;1.45;0.98;;;;;15.30;93207.00;;;;7396397;19;20499;-77
2022/09/15 06:50:39;;;;;;;1.10;0.90;;;;;15.20;93209.00;;;;7397327;19;20159;-78
2022/09/15 06:53:12;;;;;;;4.65;0.95;;;;;15.20;93221.00;;;;7397552;19;20125;-77
2022/09/15 06:55:39;;;;;;;3.10;1.10;;;;;15.10;93215.00;;;;7399680;19;20125;-77
2022/09/15 06:58:07;;;;;;;1.98;0.73;;;;;15.10;93221.00;;;;7396693;19;20125;-77
2022/09/15 07:00:42;;;;;;;0.77;0.77;;;;;15.00;93225.00;;;;7394882;19;20603;-78
2022/09/15 07:03:09;;;;;;;0.93;0.82;;;;;15.00;93219.00;;;;7392457;19;20149;-76
2022/09/15 07:05:37;;;;;;;1.27;0.82;;;;;15.00;93217.00;;;;7390051;19;20792;-75
2022/09/15 07:08:12;;;;;;;1.40;0.80;;;;;15.00;93215.00;;;;7392599;19;20878;-76
2022/09/15 07:10:43;;;;;;;2.83;0.95;;;;;14.90;93220.00;;;;7391656;19;20469;-77
2022/09/15 07:13:11;;;;;;;1.98;1.02;;;;;14.80;93217.00;;;;7390804;19;20155;-75
2022/09/15 07:15:52;;;;;;;1.08;0.68;;;;;14.90;93219.00;;;;7395535;19;20181;-76
2022/09/15 07:18:29;;;;;;;1.02;0.63;;;;;14.90;93214.00;;;;7392778;19;20168;-75
2022/09/15 07:21:18;;;;;;;1.63;0.80;;;;;15.00;93218.00;;;;7393238;19;20769;-75
2022/09/15 07:23:49;;;;;;;1.92;0.70;;;;;15.00;93217.00;;;;7390816;19;20144;-76
2022/09/15 07:26:28;;;;;;;2.75;0.60;;;;;15.00;93220.00;;;;7389187;19;20517;-77
2022/09/15 07:29:07;;;;;;;1.17;0.73;;;;;15.00;93223.00;;;;7392425;19;20148;-76
2022/09/15 07:31:44;;;;;;;2.10;0.52;;;;;14.90;93219.00;;;;7393295;19;20168;-76
2022/09/15 07:34:25;;;;;;;2.30;0.70;;;;;14.90;93229.00;;;;7396706;19;20172;-75
2022/09/15 07:36:59;;;;;;;0.93;0.60;;;;;14.90;93228.00;;;;7393314;19;20137;-75
2022/09/15 07:39:26;;;;;;;3.60;0.80;;;;;14.80;93225.00;;;;7396470;19;20159;-76
2022/09/15 07:41:53;;;;;;;3.60;0.60;;;;;14.80;93233.00;;;;7396570;19;20151;-75
2022/09/15 07:44:36;;;;;;;1.85;0.60;;;;;14.90;93233.00;;;;7393136;19;20121;-75
2022/09/15 07:47:04;;;;;;;0.52;0.52;;;;;14.90;93233.00;;;;7394838;19;20171;-78
2022/09/15 07:49:31;;;;;;;0.45;0.40;;;;;15.00;93239.00;;;;7392569;19;20140;-76
2022/09/15 07:52:05;;;;;;;0.45;0.45;;;;;15.10;93245.00;;;;7392666;19;20195;-76
2022/09/15 07:54:35;;;;;;;0.80;0.50;;;;;15.10;93229.00;;;;7387326;19;20583;-76
2022/09/15 07:57:10;;;;;;;2.75;0.52;;;;;15.20;93235.00;;;;7391040;19;20160;-76
2022/09/15 07:59:49;;;;;;;0.40;0.35;;;;;15.20;93237.00;;;;7390865;19;20609;-77
2022/09/15 08:02:19;;;;;;;0.63;0.63;;;;;15.30;93236.00;;;;7387832;19;20128;-76
2022/09/15 08:04:47;;;;;;;1.10;0.68;;;;;15.40;93237.00;;;;7387743;19;20204;-77
2022/09/15 08:07:20;;;;;;;1.17;0.68;;;;;15.40;93247.00;;;;7390805;19;20183;-77
2022/09/15 08:09:47;;;;;;;0.60;0.60;;;;;15.50;93249.00;;;;7394176;19;20156;-77
2022/09/15 08:12:15;;;;;;;1.30;0.70;;;;;15.50;93247.00;;;;7396335;19;20132;-78
2022/09/15 08:14:49;;;;;;;1.02;0.50;;;;;15.50;93241.00;;;;7393582;19;20498;-77
2022/09/15 08:17:16;;;;;;;2.53;0.60;;;;;15.40;93243.00;;;;7390546;19;20157;-77
2022/09/15 08:19:45;;;;;;;0.95;0.50;;;;;15.40;93254.00;;;;7391138;19;20151;-79
2022/09/15 08:22:21;;;;;;;0.40;0.40;;;;;15.40;93255.00;;;;7389450;19;20196;-79
2022/09/15 08:24:49;;;;;;;0.57;0.50;;;;;15.50;93261.00;;;;7389896;19;20133;-79
2022/09/15 08:27:16;;;;;;;0.50;0.50;;;;;15.50;93254.00;;;;7391813;19;20165;-79
2022/09/15 08:29:52;;;;;;;0.50;0.50;;;;;15.60;93264.00;;;;7386759;19;20129;-79
2022/09/15 08:32:26;;;;;;;0.57;0.45;;;;;15.50;93268.00;;;;7390074;19;20139;-78
2022/09/15 08:35:08;;;;;;;0.73;0.40;;;;;15.40;93273.00;;;;7388395;19;20175;-78
2022/09/15 08:37:35;;;;;;;0.57;0.57;;;;;15.40;93274.00;;;;7387680;19;20147;-79
2022/09/15 08:40:23;;;;;;;0.50;0.50;;;;;15.50;93275.00;;;;7391880;19;20141;-78
2022/09/15 08:42:54;;;;;;;2.28;0.50;;;;;15.50;93271.00;;;;7389884;19;20609;-79
2022/09/15 08:45:34;;;;;;;0.77;0.68;;;;;15.50;93277.00;;;;7391236;19;20591;-79
2022/09/15 08:48:12;;;;;;;0.75;0.65;;;;;15.50;93268.00;;;;7390365;19;20130;-80
2022/09/15 08:50:51;;;;;;;0.90;0.80;;;;;15.50;93280.00;;;;7387006;19;20136;-78
2022/09/15 08:53:32;;;;;;;0.70;0.70;;;;;15.60;93282.00;;;;7388733;19;20547;-77
2022/09/15 08:56:16;;;;;;;0.60;0.60;;;;;15.60;93284.00;;;;7391119;19;20184;-79
2022/09/15 08:58:45;;;;;;;0.80;0.80;;;;;15.70;93285.00;;;;7389463;19;20160;-79
2022/09/15 09:02:11;;;;;;;1.20;0.80;;;;;15.60;93288.00;;;;7387773;19;20166;-79
2022/09/15 09:05:04;;;;;;;0.60;0.60;;;;;15.70;93285.00;;;;7388009;19;20220;-79
2022/09/15 09:07:58;;;;;;;0.70;0.70;;;;;15.60;93288.00;;;;7390844;19;20141;-79
2022/09/15 09:10:49;;;;;;;4.32;0.90;;;;;15.70;93284.00;;;;7390219;19;20190;-80
2022/09/15 09:13:46;;;;;;;0.82;0.82;;;;;15.70;93297.00;;;;7395161;19;20132;-79
2022/09/15 09:16:42;;;;;;;0.70;0.70;;;;;15.70;93303.00;;;;7395221;19;20197;-79
2022/09/15 09:19:35;;;;;;;0.20;0.20;;;;;15.10;93309.00;;;;7389480;19;20160;-79
2022/09/15 09:22:16;;;;;;;1.50;0.20;;;;;15.00;93305.00;;;;7388384;19;20544;-76
2022/09/15 09:24:56;;;;;;;0.13;0.13;;;;;14.70;93306.00;;;;7388381;19;20615;-76
2022/09/15 09:27:27;;;;;;;0.15;0.10;;;;;14.50;93313.00;;;;7387432;19;20145;-75
2022/09/15 09:30:22;;;;;;;1.13;0.28;;;;;14.40;93320.00;;;;7388075;19;20646;-75
2022/09/15 09:33:23;;;;;;;0.20;0.15;;;;;14.30;93322.00;;;;7389865;19;20465;-75
2022/09/15 09:36:02;;;;;;;0.20;0.20;;;;;14.10;93327.00;;;;7387516;19;20141;-75
2022/09/15 09:38:40;;;;;;;1.23;0.20;;;;;13.80;93322.00;;;;7387339;19;20230;-76
2022/09/15 09:41:21;;;;;;;0.20;0.20;;;;;14.00;93312.00;;;;7387875;19;20231;-76
2022/09/15 09:43:53;;;;;;;0.55;0.20;;;;;13.80;93310.00;;;;7391454;19;20144;-76
2022/09/15 21:48:13;;;;;;;8.13;5.70;;;;;11.00;93597.00;;;;7385886;19;20176;-79
2022/09/15 21:50:55;;;;;;;8.98;5.88;;;;;11.10;93603.00;;;;7391803;19;20149;-80
2022/09/15 21:53:23;;;;;;;7.40;6.00;;;;;11.00;93599.00;;;;7390695;19;20183;-79
2022/09/15 21:56:01;;;;;;;8.27;6.20;;;;;11.00;93603.00;;;;7387596;19;20147;-77
2022/09/15 21:58:34;;;;;;;8.50;6.53;;;;;11.10;93614.00;;;;7387036;19;20587;-80
2022/09/15 22:01:19;;;;;;;8.90;6.55;;;;;11.00;93597.00;;;;7384615;19;20216;-80
2022/09/15 22:03:55;;;;;;;9.00;5.88;;;;;11.10;93602.00;;;;7388105;19;20176;-79
2022/09/15 22:06:34;;;;;;;9.07;6.18;;;;;11.00;93602.00;;;;7386193;19;20156;-79
2022/09/15 22:09:07;;;;;;;14.55;6.80;;;;;11.10;93592.00;;;;7386272;19;20220;-80
2022/09/15 22:11:42;;;;;;;8.43;6.65;;;;;11.00;93590.00;;;;7389782;19;20136;-81
2022/09/15 22:14:10;;;;;;;8.23;6.25;;;;;11.10;93595.00;;;;7386545;19;20245;-80
2022/09/15 22:16:43;;;;;;;9.63;6.70;;;;;11.10;93592.00;;;;7386531;19;20160;-79
2022/09/15 22:19:18;;;;;;;8.23;6.63;;;;;11.20;93597.00;;;;7387078;19;20184;-78
2022/09/15 22:21:45;;;;;;;9.05;6.20;;;;;11.20;93591.00;;;;7386007;19;20148;-78
2022/09/15 22:24:13;;;;;;;10.70;6.25;;;;;11.20;93591.00;;;;7386248;19;20222;-79
2022/09/15 22:26:49;;;;;;;9.82;5.90;;;;;11.30;93591.00;;;;7386766;19;20144;-80
2022/09/15 22:29:26;;;;;;;9.05;6.15;;;;;11.30;93594.00;;;;7386018;19;20153;-79
2022/09/15 22:31:54;;;;;;;9.38;5.90;;;;;11.30;93604.00;;;;7385734;19;20144;-79
2022/09/15 22:34:28;;;;;;;11.48;6.10;;;;;11.40;93608.00;;;;7385925;19;20648;-80
2022/09/15 22:36:56;;;;;;;11.50;6.30;;;;;11.40;93599.00;;;;7384440;19;20140;-79
2022/09/15 22:39:23;;;;;;;8.68;5.65;;;;;11.40;93605.00;;;;7384557;19;20159;-79
2022/09/15 22:42:22;;;;;;;11.63;6.95;;;;;11.50;93599.00;;;;7386677;19;20129;-79
2022/09/15 22:44:49;;;;;;;11.73;6.38;;;;;11.50;93608.00;;;;7389693;19;20212;-79
2022/09/15 22:47:39;;;;;;;13.23;6.57;;;;;11.50;93610.00;;;;7390647;19;20148;-80
2022/09/15 22:50:13;;;;;;;8.13;5.63;;;;;11.50;93607.00;;;;7395757;19;20141;-79
2022/09/15 22:52:47;;;;;;;8.07;5.82;;;;;11.50;93611.00;;;;7396375;19;20160;-79
2022/09/15 22:55:15;;;;;;;10.27;5.82;;;;;11.50;93608.00;;;;7397943;19;20140;-80
2022/09/15 22:57:42;;;;;;;9.35;5.90;;;;;11.50;93604.00;;;;7397678;19;20148;-81
2022/09/15 23:00:16;;;;;;;9.70;6.07;;;;;11.50;93605.00;;;;7400720;19;20578;-81
2022/09/15 23:02:45;;;;;;;10.70;5.90;;;;;11.50;93608.00;;;;7397496;19;20689;-80
2022/09/15 23:05:15;;;;;;;7.88;5.50;;;;;11.50;93605.00;;;;7398418;19;20156;-79
2022/09/15 23:07:49;;;;;;;9.50;5.68;;;;;11.50;93606.00;;;;7397681;19;20153;-80
2022/09/15 23:10:17;;;;;;;7.90;5.07;;;;;11.50;93605.00;;;;7398850;19;20205;-80
2022/09/15 23:12:44;;;;;;;7.72;6.03;;;;;11.40;93596.00;;;;7396596;19;20128;-80
2022/09/15 23:15:18;;;;;;;13.18;6.10;;;;;11.40;93597.00;;;;7395678;19;20562;-80
2022/09/15 23:17:46;;;;;;;10.85;5.93;;;;;11.40;93603.00;;;;7395535;19;20148;-80
2022/09/15 23:20:14;;;;;;;9.40;5.32;;;;;11.40;93602.00;;;;7394502;19;20221;-80
2022/09/15 23:22:48;;;;;;;10.57;6.05;;;;;11.40;93598.00;;;;7394859;19;20143;-80
2022/09/15 23:25:16;;;;;;;11.95;5.65;;;;;11.50;93596.00;;;;7394096;19;20136;-79
2022/09/15 23:27:45;;;;;;;8.90;6.18;;;;;11.40;93588.00;;;;7392683;19;20137;-79
2022/09/15 23:30:19;;;;;;;9.93;6.25;;;;;11.40;93601.00;;;;7394752;19;20151;-78
2022/09/15 23:32:46;;;;;;;13.27;5.97;;;;;11.40;93588.00;;;;7394654;19;20147;-79
2022/09/15 23:35:14;;;;;;;5.88;5.13;;;;;11.30;93587.00;;;;7395843;19;20164;-80
2022/09/15 23:37:48;;;;;;;8.02;5.28;;;;;11.30;93586.00;;;;7397369;19;20211;-80
2022/09/15 23:40:16;;;;;;;8.90;5.88;;;;;11.30;93588.00;;;;7394304;19;20141;-79
2022/09/15 23:42:43;;;;;;;7.75;5.75;;;;;11.30;93584.00;;;;7397831;19;20148;-80
2022/09/15 23:45:17;;;;;;;8.82;5.55;;;;;11.30;93583.00;;;;7392364;19;20489;-80
2022/09/15 23:47:58;;;;;;;9.23;5.47;;;;;11.20;93586.00;;;;7394279;19;20228;-80
2022/09/15 23:50:32;;;;;;;9.30;5.75;;;;;11.20;93588.00;;;;7394550;19;20139;-80
2022/09/15 23:53:00;;;;;;;7.78;5.40;;;;;11.20;93590.00;;;;7396920;19;20151;-80
2022/09/15 23:55:27;;;;;;;8.80;5.72;;;;;11.20;93583.00;;;;7394573;19;20197;-81
2022/09/15 23:58:01;;;;;;;9.82;5.55;;;;;11.20;93582.00;;;;7398229;19;20133;-80
